sensor_id;sensor_type;location;lat;lon;timestamp;P1;durP1;ratioP1;P2;durP2;ratioP2
6661;SDS011;3367;48.714;8.994;2023-09-18T00:01:44;3.63;;;2.00;;
6661;SDS011;3367;48.714;8.994;2023-09-18T00:04:10;2.30;;;2.10;;
6661;SDS011;3367;48.714;8.994;2023-09-18T00:06:37;1.93;;;1.83;;
6661;SDS011;3367;48.714;8.994;2023-09-18T00:09:04;3.10;;;2.33;;
6661;SDS011;3367;48.714;8.994;2023-09-18T00:11:36;3.00;;;2.20;;
6661;SDS011;3367;48.714;8.994;2023-09-18T00:14:04;2.20;;;2.00;;
6661;SDS011;3367;48.714;8.994;2023-09-18T00:16:31;2.83;;;2.17;;
6661;SDS011;3367;48.714;8.994;2023-09-18T00:18:57;2.40;;;2.13;;
6661;SDS011;3367;48.714;8.994;2023-09-18T00:21:24;3.20;;;2.07;;
6661;SDS011;3367;48.714;8.994;2023-09-18T00:23:51;2.73;;;2.53;;
6661;SDS011;3367;48.714;8.994;2023-09-18T00:26:18;2.50;;;2.30;;
6661;SDS011;3367;48.714;8.994;2023-09-18T00:28:44;2.73;;;2.10;;
6661;SDS011;3367;48.714;8.994;2023-09-18T00:31:12;3.50;;;2.20;;
6661;SDS011;3367;48.714;8.994;2023-09-18T00:33:39;2.17;;;2.03;;
6661;SDS011;3367;48.714;8.994;2023-09-18T00:36:06;3.00;;;2.37;;
6661;SDS011;3367;48.714;8.994;2023-09-18T00:38:32;2.67;;;2.47;;
6661;SDS011;3367;48.714;8.994;2023-09-18T00:40:59;2.70;;;2.50;;
6661;SDS011;3367;48.714;8.994;2023-09-18T00:43:26;2.33;;;2.13;;
6661;SDS011;3367;48.714;8.994;2023-09-18T00:45:52;2.90;;;2.10;;
6661;SDS011;3367;48.714;8.994;2023-09-18T00:48:20;5.10;;;1.70;;
6661;SDS011;3367;48.714;8.994;2023-09-18T00:50:48;2.10;;;1.93;;
6661;SDS011;3367;48.714;8.994;2023-09-18T00:53:15;3.13;;;1.87;;
6661;SDS011;3367;48.714;8.994;2023-09-18T00:55:45;2.40;;;2.20;;
6661;SDS011;3367;48.714;8.994;2023-09-18T00:58:12;2.37;;;2.17;;
6661;SDS011;3367;48.714;8.994;2023-09-18T01:00:40;2.27;;;1.90;;
6661;SDS011;3367;48.714;8.994;2023-09-18T01:03:06;1.90;;;1.80;;
6661;SDS011;3367;48.714;8.994;2023-09-18T01:05:35;2.90;;;2.50;;
6661;SDS011;3367;48.714;8.994;2023-09-18T01:08:01;8.43;;;2.40;;
6661;SDS011;3367;48.714;8.994;2023-09-18T01:10:36;1.77;;;1.67;;
6661;SDS011;3367;48.714;8.994;2023-09-18T01:13:10;2.60;;;2.10;;
6661;SDS011;3367;48.714;8.994;2023-09-18T01:15:42;4.87;;;1.93;;
6661;SDS011;3367;48.714;8.994;2023-09-18T01:18:13;2.67;;;2.47;;
6661;SDS011;3367;48.714;8.994;2023-09-18T01:20:44;3.00;;;1.97;;
6661;SDS011;3367;48.714;8.994;2023-09-18T01:23:12;1.97;;;1.87;;
6661;SDS011;3367;48.714;8.994;2023-09-18T01:25:39;2.23;;;2.03;;
6661;SDS011;3367;48.714;8.994;2023-09-18T01:28:05;3.33;;;2.00;;
6661;SDS011;3367;48.714;8.994;2023-09-18T01:30:32;2.10;;;1.90;;
6661;SDS011;3367;48.714;8.994;2023-09-18T01:32:59;2.20;;;2.00;;
6661;SDS011;3367;48.714;8.994;2023-09-18T01:35:28;2.13;;;1.90;;
6661;SDS011;3367;48.714;8.994;2023-09-18T01:37:56;4.37;;;2.10;;
6661;SDS011;3367;48.714;8.994;2023-09-18T01:40:24;3.23;;;2.40;;
6661;SDS011;3367;48.714;8.994;2023-09-18T01:42:52;2.10;;;1.90;;
6661;SDS011;3367;48.714;8.994;2023-09-18T01:45:19;2.37;;;2.20;;
6661;SDS011;3367;48.714;8.994;2023-09-18T01:47:45;1.63;;;1.50;;
6661;SDS011;3367;48.714;8.994;2023-09-18T01:50:12;1.97;;;1.80;;
6661;SDS011;3367;48.714;8.994;2023-09-18T01:52:39;1.77;;;1.67;;
6661;SDS011;3367;48.714;8.994;2023-09-18T01:55:06;2.60;;;1.70;;
6661;SDS011;3367;48.714;8.994;2023-09-18T01:57:35;3.00;;;1.80;;
6661;SDS011;3367;48.714;8.994;2023-09-18T02:00:02;3.23;;;1.97;;
6661;SDS011;3367;48.714;8.994;2023-09-18T02:02:32;2.13;;;1.83;;
6661;SDS011;3367;48.714;8.994;2023-09-18T02:04:59;1.77;;;1.67;;
6661;SDS011;3367;48.714;8.994;2023-09-18T02:07:27;9.03;;;2.20;;
6661;SDS011;3367;48.714;8.994;2023-09-18T02:09:54;4.23;;;2.00;;
6661;SDS011;3367;48.714;8.994;2023-09-18T02:12:20;2.13;;;1.93;;
6661;SDS011;3367;48.714;8.994;2023-09-18T02:14:48;2.47;;;1.80;;
6661;SDS011;3367;48.714;8.994;2023-09-18T02:17:15;3.30;;;1.60;;
6661;SDS011;3367;48.714;8.994;2023-09-18T02:19:42;2.13;;;1.40;;
6661;SDS011;3367;48.714;8.994;2023-09-18T02:24:39;2.70;;;1.50;;
6661;SDS011;3367;48.714;8.994;2023-09-18T02:27:06;1.67;;;1.57;;
6661;SDS011;3367;48.714;8.994;2023-09-18T02:29:33;2.30;;;1.87;;
6661;SDS011;3367;48.714;8.994;2023-09-18T02:32:07;2.63;;;1.70;;
6661;SDS011;3367;48.714;8.994;2023-09-18T02:34:35;2.33;;;1.40;;
6661;SDS011;3367;48.714;8.994;2023-09-18T02:37:15;6.70;;;1.73;;
6661;SDS011;3367;48.714;8.994;2023-09-18T02:39:45;3.20;;;1.60;;
6661;SDS011;3367;48.714;8.994;2023-09-18T02:42:12;1.50;;;1.40;;
6661;SDS011;3367;48.714;8.994;2023-09-18T02:44:42;3.13;;;1.40;;
6661;SDS011;3367;48.714;8.994;2023-09-18T02:47:13;2.77;;;2.10;;
6661;SDS011;3367;48.714;8.994;2023-09-18T02:49:46;2.10;;;1.40;;
6661;SDS011;3367;48.714;8.994;2023-09-18T02:52:12;3.80;;;1.53;;
6661;SDS011;3367;48.714;8.994;2023-09-18T02:54:42;3.40;;;1.63;;
6661;SDS011;3367;48.714;8.994;2023-09-18T02:57:09;1.83;;;1.30;;
6661;SDS011;3367;48.714;8.994;2023-09-18T02:59:38;5.00;;;1.60;;
6661;SDS011;3367;48.714;8.994;2023-09-18T03:02:05;1.67;;;1.57;;
6661;SDS011;3367;48.714;8.994;2023-09-18T03:04:33;1.80;;;1.67;;
6661;SDS011;3367;48.714;8.994;2023-09-18T03:06:59;1.50;;;1.40;;
6661;SDS011;3367;48.714;8.994;2023-09-18T03:09:29;2.07;;;1.87;;
6661;SDS011;3367;48.714;8.994;2023-09-18T03:11:59;3.80;;;1.57;;
6661;SDS011;3367;48.714;8.994;2023-09-18T03:14:31;3.27;;;2.17;;
6661;SDS011;3367;48.714;8.994;2023-09-18T03:16:59;1.60;;;1.47;;
6661;SDS011;3367;48.714;8.994;2023-09-18T03:19:26;1.50;;;1.40;;
6661;SDS011;3367;48.714;8.994;2023-09-18T03:21:57;6.53;;;1.70;;
6661;SDS011;3367;48.714;8.994;2023-09-18T03:24:26;1.60;;;1.50;;
6661;SDS011;3367;48.714;8.994;2023-09-18T03:26:56;2.90;;;1.87;;
6661;SDS011;3367;48.714;8.994;2023-09-18T03:29:25;1.67;;;1.57;;
6661;SDS011;3367;48.714;8.994;2023-09-18T03:31:57;2.13;;;1.60;;
6661;SDS011;3367;48.714;8.994;2023-09-18T03:34:24;3.43;;;1.90;;
6661;SDS011;3367;48.714;8.994;2023-09-18T03:36:58;2.70;;;1.90;;
6661;SDS011;3367;48.714;8.994;2023-09-18T03:39:25;10.60;;;2.37;;
6661;SDS011;3367;48.714;8.994;2023-09-18T03:41:57;4.80;;;1.90;;
6661;SDS011;3367;48.714;8.994;2023-09-18T03:44:29;5.70;;;1.63;;
6661;SDS011;3367;48.714;8.994;2023-09-18T03:46:56;5.07;;;1.70;;
6661;SDS011;3367;48.714;8.994;2023-09-18T03:49:28;1.70;;;1.40;;
6661;SDS011;3367;48.714;8.994;2023-09-18T03:51:57;2.53;;;1.30;;
6661;SDS011;3367;48.714;8.994;2023-09-18T03:54:24;3.03;;;1.57;;
6661;SDS011;3367;48.714;8.994;2023-09-18T03:56:53;6.77;;;1.60;;
6661;SDS011;3367;48.714;8.994;2023-09-18T03:59:26;2.67;;;1.53;;
6661;SDS011;3367;48.714;8.994;2023-09-18T04:01:53;2.87;;;1.40;;
6661;SDS011;3367;48.714;8.994;2023-09-18T04:04:22;4.03;;;1.40;;
6661;SDS011;3367;48.714;8.994;2023-09-18T04:06:49;3.83;;;1.60;;
6661;SDS011;3367;48.714;8.994;2023-09-18T04:09:17;3.20;;;2.20;;
6661;SDS011;3367;48.714;8.994;2023-09-18T04:11:44;3.80;;;1.43;;
6661;SDS011;3367;48.714;8.994;2023-09-18T04:14:10;1.30;;;1.20;;
6661;SDS011;3367;48.714;8.994;2023-09-18T04:16:37;1.50;;;1.10;;
6661;SDS011;3367;48.714;8.994;2023-09-18T04:19:08;2.13;;;1.93;;
6661;SDS011;3367;48.714;8.994;2023-09-18T04:21:35;6.57;;;2.10;;
6661;SDS011;3367;48.714;8.994;2023-09-18T04:24:01;3.57;;;1.33;;
6661;SDS011;3367;48.714;8.994;2023-09-18T04:26:33;2.50;;;1.10;;
6661;SDS011;3367;48.714;8.994;2023-09-18T04:28:59;1.93;;;1.23;;
6661;SDS011;3367;48.714;8.994;2023-09-18T04:31:29;2.97;;;1.97;;
6661;SDS011;3367;48.714;8.994;2023-09-18T04:33:56;1.67;;;1.27;;
6661;SDS011;3367;48.714;8.994;2023-09-18T04:36:23;3.00;;;1.50;;
6661;SDS011;3367;48.714;8.994;2023-09-18T04:38:56;5.67;;;1.70;;
6661;SDS011;3367;48.714;8.994;2023-09-18T04:41:23;2.73;;;1.50;;
6661;SDS011;3367;48.714;8.994;2023-09-18T04:43:56;4.57;;;1.70;;
6661;SDS011;3367;48.714;8.994;2023-09-18T04:46:23;5.80;;;1.90;;
6661;SDS011;3367;48.714;8.994;2023-09-18T04:48:53;3.37;;;2.07;;
6661;SDS011;3367;48.714;8.994;2023-09-18T04:51:20;2.70;;;1.83;;
6661;SDS011;3367;48.714;8.994;2023-09-18T04:53:47;4.57;;;2.07;;
6661;SDS011;3367;48.714;8.994;2023-09-18T04:56:14;3.27;;;1.50;;
6661;SDS011;3367;48.714;8.994;2023-09-18T04:58:40;4.07;;;1.90;;
6661;SDS011;3367;48.714;8.994;2023-09-18T05:01:08;3.80;;;1.83;;
6661;SDS011;3367;48.714;8.994;2023-09-18T05:03:36;3.00;;;1.60;;
6661;SDS011;3367;48.714;8.994;2023-09-18T05:06:03;1.90;;;1.47;;
6661;SDS011;3367;48.714;8.994;2023-09-18T05:08:29;3.97;;;1.67;;
6661;SDS011;3367;48.714;8.994;2023-09-18T05:10:57;2.40;;;1.50;;
6661;SDS011;3367;48.714;8.994;2023-09-18T05:13:30;2.53;;;2.33;;
6661;SDS011;3367;48.714;8.994;2023-09-18T05:16:02;1.50;;;1.30;;
6661;SDS011;3367;48.714;8.994;2023-09-18T05:18:31;1.90;;;1.70;;
6661;SDS011;3367;48.714;8.994;2023-09-18T05:20:57;2.20;;;1.50;;
6661;SDS011;3367;48.714;8.994;2023-09-18T05:23:32;1.27;;;1.17;;
6661;SDS011;3367;48.714;8.994;2023-09-18T05:25:59;2.57;;;1.13;;
6661;SDS011;3367;48.714;8.994;2023-09-18T05:28:26;2.40;;;1.20;;
6661;SDS011;3367;48.714;8.994;2023-09-18T05:30:52;1.83;;;1.30;;
6661;SDS011;3367;48.714;8.994;2023-09-18T05:33:22;1.50;;;0.90;;
6661;SDS011;3367;48.714;8.994;2023-09-18T05:35:52;1.83;;;0.77;;
6661;SDS011;3367;48.714;8.994;2023-09-18T05:38:19;2.90;;;1.20;;
6661;SDS011;3367;48.714;8.994;2023-09-18T05:40:46;1.13;;;1.03;;
6661;SDS011;3367;48.714;8.994;2023-09-18T05:43:13;1.77;;;1.10;;
6661;SDS011;3367;48.714;8.994;2023-09-18T05:45:41;2.07;;;1.30;;
6661;SDS011;3367;48.714;8.994;2023-09-18T05:48:08;2.00;;;0.93;;
6661;SDS011;3367;48.714;8.994;2023-09-18T05:50:35;3.50;;;0.80;;
6661;SDS011;3367;48.714;8.994;2023-09-18T05:53:03;1.00;;;0.90;;
6661;SDS011;3367;48.714;8.994;2023-09-18T05:55:30;7.20;;;1.60;;
6661;SDS011;3367;48.714;8.994;2023-09-18T05:58:00;6.97;;;1.37;;
6661;SDS011;3367;48.714;8.994;2023-09-18T06:00:32;3.83;;;1.23;;
6661;SDS011;3367;48.714;8.994;2023-09-18T06:03:01;1.23;;;1.13;;
6661;SDS011;3367;48.714;8.994;2023-09-18T06:05:30;1.10;;;0.70;;
6661;SDS011;3367;48.714;8.994;2023-09-18T06:07:58;2.80;;;1.27;;
6661;SDS011;3367;48.714;8.994;2023-09-18T06:10:29;6.67;;;1.33;;
6661;SDS011;3367;48.714;8.994;2023-09-18T06:12:56;9.40;;;1.40;;
6661;SDS011;3367;48.714;8.994;2023-09-18T06:15:29;2.97;;;1.30;;
6661;SDS011;3367;48.714;8.994;2023-09-18T06:17:58;2.30;;;1.20;;
6661;SDS011;3367;48.714;8.994;2023-09-18T06:20:25;1.67;;;1.27;;
6661;SDS011;3367;48.714;8.994;2023-09-18T06:23:04;3.70;;;1.70;;
6661;SDS011;3367;48.714;8.994;2023-09-18T06:25:32;5.10;;;1.43;;
6661;SDS011;3367;48.714;8.994;2023-09-18T06:27:59;2.27;;;1.63;;
6661;SDS011;3367;48.714;8.994;2023-09-18T06:30:28;1.20;;;1.10;;
6661;SDS011;3367;48.714;8.994;2023-09-18T06:33:02;5.57;;;1.50;;
6661;SDS011;3367;48.714;8.994;2023-09-18T06:35:30;1.80;;;1.13;;
6661;SDS011;3367;48.714;8.994;2023-09-18T06:37:56;1.23;;;1.07;;
6661;SDS011;3367;48.714;8.994;2023-09-18T06:40:24;1.87;;;1.50;;
6661;SDS011;3367;48.714;8.994;2023-09-18T06:42:53;3.87;;;1.03;;
6661;SDS011;3367;48.714;8.994;2023-09-18T06:45:25;2.30;;;0.93;;
6661;SDS011;3367;48.714;8.994;2023-09-18T06:47:51;1.43;;;1.00;;
6661;SDS011;3367;48.714;8.994;2023-09-18T06:50:19;2.13;;;1.30;;
6661;SDS011;3367;48.714;8.994;2023-09-18T06:52:46;3.43;;;1.20;;
6661;SDS011;3367;48.714;8.994;2023-09-18T06:55:12;1.80;;;0.87;;
6661;SDS011;3367;48.714;8.994;2023-09-18T06:57:40;1.97;;;1.13;;
6661;SDS011;3367;48.714;8.994;2023-09-18T07:00:09;1.27;;;0.80;;
6661;SDS011;3367;48.714;8.994;2023-09-18T07:02:39;8.43;;;1.20;;
6661;SDS011;3367;48.714;8.994;2023-09-18T07:05:06;1.10;;;1.00;;
6661;SDS011;3367;48.714;8.994;2023-09-18T07:07:32;3.63;;;1.63;;
6661;SDS011;3367;48.714;8.994;2023-09-18T07:09:59;2.70;;;1.10;;
6661;SDS011;3367;48.714;8.994;2023-09-18T07:12:25;2.77;;;1.20;;
6661;SDS011;3367;48.714;8.994;2023-09-18T07:14:53;6.67;;;0.97;;
6661;SDS011;3367;48.714;8.994;2023-09-18T07:17:21;3.10;;;0.80;;
6661;SDS011;3367;48.714;8.994;2023-09-18T07:19:48;0.90;;;0.80;;
6661;SDS011;3367;48.714;8.994;2023-09-18T07:22:14;3.03;;;1.03;;
6661;SDS011;3367;48.714;8.994;2023-09-18T07:24:42;0.80;;;0.80;;
6661;SDS011;3367;48.714;8.994;2023-09-18T07:27:10;1.50;;;0.80;;
6661;SDS011;3367;48.714;8.994;2023-09-18T07:29:38;1.20;;;0.80;;
6661;SDS011;3367;48.714;8.994;2023-09-18T07:32:05;4.30;;;0.70;;
6661;SDS011;3367;48.714;8.994;2023-09-18T07:34:33;1.00;;;0.90;;
6661;SDS011;3367;48.714;8.994;2023-09-18T07:37:00;2.93;;;1.00;;
6661;SDS011;3367;48.714;8.994;2023-09-18T07:39:27;0.90;;;0.77;;
6661;SDS011;3367;48.714;8.994;2023-09-18T07:41:53;2.60;;;1.00;;
6661;SDS011;3367;48.714;8.994;2023-09-18T07:44:21;1.10;;;0.80;;
6661;SDS011;3367;48.714;8.994;2023-09-18T07:46:48;1.83;;;0.90;;
6661;SDS011;3367;48.714;8.994;2023-09-18T07:49:14;1.17;;;0.60;;
6661;SDS011;3367;48.714;8.994;2023-09-18T07:51:43;0.93;;;0.80;;
6661;SDS011;3367;48.714;8.994;2023-09-18T07:54:13;4.50;;;0.60;;
6661;SDS011;3367;48.714;8.994;2023-09-18T07:56:41;0.90;;;0.70;;
6661;SDS011;3367;48.714;8.994;2023-09-18T07:59:08;1.47;;;0.60;;
6661;SDS011;3367;48.714;8.994;2023-09-18T08:01:35;1.40;;;0.70;;
6661;SDS011;3367;48.714;8.994;2023-09-18T08:04:02;1.27;;;0.90;;
6661;SDS011;3367;48.714;8.994;2023-09-18T08:06:30;0.93;;;0.40;;
6661;SDS011;3367;48.714;8.994;2023-09-18T08:08:59;0.80;;;0.53;;
6661;SDS011;3367;48.714;8.994;2023-09-18T08:11:26;3.63;;;0.90;;
6661;SDS011;3367;48.714;8.994;2023-09-18T08:13:53;0.87;;;0.67;;
6661;SDS011;3367;48.714;8.994;2023-09-18T08:16:20;1.50;;;0.60;;
6661;SDS011;3367;48.714;8.994;2023-09-18T08:18:47;1.47;;;0.87;;
6661;SDS011;3367;48.714;8.994;2023-09-18T08:21:13;0.60;;;0.50;;
6661;SDS011;3367;48.714;8.994;2023-09-18T08:23:41;1.23;;;0.60;;
6661;SDS011;3367;48.714;8.994;2023-09-18T08:26:10;1.10;;;0.70;;
6661;SDS011;3367;48.714;8.994;2023-09-18T08:28:36;1.90;;;0.60;;
6661;SDS011;3367;48.714;8.994;2023-09-18T08:31:08;1.57;;;0.87;;
6661;SDS011;3367;48.714;8.994;2023-09-18T08:33:35;1.40;;;0.90;;
6661;SDS011;3367;48.714;8.994;2023-09-18T08:36:02;1.00;;;0.83;;
6661;SDS011;3367;48.714;8.994;2023-09-18T08:38:28;1.20;;;0.70;;
6661;SDS011;3367;48.714;8.994;2023-09-18T08:40:56;3.40;;;0.60;;
6661;SDS011;3367;48.714;8.994;2023-09-18T08:43:25;5.03;;;1.00;;
6661;SDS011;3367;48.714;8.994;2023-09-18T08:45:54;1.00;;;0.87;;
6661;SDS011;3367;48.714;8.994;2023-09-18T08:48:26;2.70;;;1.07;;
6661;SDS011;3367;48.714;8.994;2023-09-18T08:50:59;1.07;;;0.80;;
6661;SDS011;3367;48.714;8.994;2023-09-18T08:53:27;2.10;;;1.00;;
6661;SDS011;3367;48.714;8.994;2023-09-18T08:55:56;1.00;;;0.87;;
6661;SDS011;3367;48.714;8.994;2023-09-18T08:58:25;0.90;;;0.60;;
6661;SDS011;3367;48.714;8.994;2023-09-18T09:00:52;2.50;;;0.93;;
6661;SDS011;3367;48.714;8.994;2023-09-18T09:03:19;4.20;;;1.17;;
6661;SDS011;3367;48.714;8.994;2023-09-18T09:05:47;2.10;;;1.17;;
6661;SDS011;3367;48.714;8.994;2023-09-18T09:08:14;2.10;;;1.10;;
6661;SDS011;3367;48.714;8.994;2023-09-18T09:10:41;2.03;;;1.20;;
6661;SDS011;3367;48.714;8.994;2023-09-18T09:13:08;1.83;;;0.90;;
6661;SDS011;3367;48.714;8.994;2023-09-18T09:15:44;2.50;;;1.27;;
6661;SDS011;3367;48.714;8.994;2023-09-18T09:18:12;1.77;;;0.70;;
6661;SDS011;3367;48.714;8.994;2023-09-18T09:20:41;1.57;;;0.80;;
6661;SDS011;3367;48.714;8.994;2023-09-18T09:23:18;1.67;;;0.50;;
6661;SDS011;3367;48.714;8.994;2023-09-18T09:25:45;3.73;;;0.70;;
6661;SDS011;3367;48.714;8.994;2023-09-18T09:28:12;0.90;;;0.80;;
6661;SDS011;3367;48.714;8.994;2023-09-18T09:30:39;1.30;;;1.20;;
6661;SDS011;3367;48.714;8.994;2023-09-18T09:33:09;3.60;;;1.50;;
6661;SDS011;3367;48.714;8.994;2023-09-18T09:35:38;3.73;;;1.17;;
6661;SDS011;3367;48.714;8.994;2023-09-18T09:38:08;3.40;;;1.20;;
6661;SDS011;3367;48.714;8.994;2023-09-18T09:40:38;2.83;;;1.40;;
6661;SDS011;3367;48.714;8.994;2023-09-18T09:43:07;2.03;;;1.30;;
6661;SDS011;3367;48.714;8.994;2023-09-18T09:45:34;1.60;;;0.70;;
6661;SDS011;3367;48.714;8.994;2023-09-18T09:48:02;2.10;;;1.00;;
6661;SDS011;3367;48.714;8.994;2023-09-18T09:50:33;2.37;;;1.30;;
6661;SDS011;3367;48.714;8.994;2023-09-18T09:53:00;1.80;;;1.07;;
6661;SDS011;3367;48.714;8.994;2023-09-18T09:55:28;2.07;;;1.07;;
6661;SDS011;3367;48.714;8.994;2023-09-18T09:57:56;1.03;;;0.90;;
6661;SDS011;3367;48.714;8.994;2023-09-18T10:00:28;2.40;;;1.40;;
6661;SDS011;3367;48.714;8.994;2023-09-18T10:03:02;2.93;;;1.23;;
6661;SDS011;3367;48.714;8.994;2023-09-18T10:05:33;5.87;;;1.77;;
6661;SDS011;3367;48.714;8.994;2023-09-18T10:08:02;2.60;;;0.90;;
6661;SDS011;3367;48.714;8.994;2023-09-18T10:10:33;1.00;;;0.80;;
6661;SDS011;3367;48.714;8.994;2023-09-18T10:13:04;6.30;;;1.00;;
6661;SDS011;3367;48.714;8.994;2023-09-18T10:15:34;2.30;;;1.37;;
6661;SDS011;3367;48.714;8.994;2023-09-18T10:18:04;2.07;;;0.83;;
6661;SDS011;3367;48.714;8.994;2023-09-18T10:20:38;1.40;;;1.20;;
6661;SDS011;3367;48.714;8.994;2023-09-18T10:23:11;1.90;;;1.00;;
6661;SDS011;3367;48.714;8.994;2023-09-18T10:25:45;2.90;;;0.90;;
6661;SDS011;3367;48.714;8.994;2023-09-18T10:28:16;1.47;;;0.80;;
6661;SDS011;3367;48.714;8.994;2023-09-18T10:30:43;1.80;;;1.10;;
6661;SDS011;3367;48.714;8.994;2023-09-18T10:33:11;2.10;;;1.00;;
6661;SDS011;3367;48.714;8.994;2023-09-18T10:35:39;3.13;;;1.17;;
6661;SDS011;3367;48.714;8.994;2023-09-18T10:38:07;1.93;;;0.93;;
6661;SDS011;3367;48.714;8.994;2023-09-18T10:40:36;2.70;;;1.23;;
6661;SDS011;3367;48.714;8.994;2023-09-18T10:43:03;1.37;;;0.80;;
6661;SDS011;3367;48.714;8.994;2023-09-18T10:45:34;2.70;;;1.00;;
6661;SDS011;3367;48.714;8.994;2023-09-18T10:48:02;4.00;;;1.00;;
6661;SDS011;3367;48.714;8.994;2023-09-18T10:50:33;2.30;;;0.80;;
6661;SDS011;3367;48.714;8.994;2023-09-18T10:53:03;1.47;;;0.83;;
6661;SDS011;3367;48.714;8.994;2023-09-18T10:55:30;1.37;;;1.00;;
6661;SDS011;3367;48.714;8.994;2023-09-18T10:57:58;1.10;;;0.80;;
6661;SDS011;3367;48.714;8.994;2023-09-18T11:00:26;1.10;;;0.97;;
6661;SDS011;3367;48.714;8.994;2023-09-18T11:03:08;2.23;;;1.10;;
6661;SDS011;3367;48.714;8.994;2023-09-18T11:05:37;1.77;;;1.10;;
6661;SDS011;3367;48.714;8.994;2023-09-18T11:10:58;4.50;;;0.90;;
6661;SDS011;3367;48.714;8.994;2023-09-18T11:13:30;3.80;;;1.23;;
6661;SDS011;3367;48.714;8.994;2023-09-18T11:16:13;1.47;;;1.10;;
6661;SDS011;3367;48.714;8.994;2023-09-18T11:18:48;1.40;;;0.90;;
6661;SDS011;3367;48.714;8.994;2023-09-18T11:21:17;1.40;;;0.77;;
6661;SDS011;3367;48.714;8.994;2023-09-18T11:23:45;1.10;;;0.93;;
6661;SDS011;3367;48.714;8.994;2023-09-18T11:26:19;1.10;;;0.90;;
6661;SDS011;3367;48.714;8.994;2023-09-18T11:28:46;1.20;;;1.10;;
6661;SDS011;3367;48.714;8.994;2023-09-18T11:31:14;1.03;;;0.93;;
6661;SDS011;3367;48.714;8.994;2023-09-18T11:33:42;1.47;;;1.27;;
6661;SDS011;3367;48.714;8.994;2023-09-18T11:36:11;1.67;;;1.00;;
6661;SDS011;3367;48.714;8.994;2023-09-18T11:38:53;0.80;;;0.73;;
6661;SDS011;3367;48.714;8.994;2023-09-18T11:41:22;1.13;;;0.60;;
6661;SDS011;3367;48.714;8.994;2023-09-18T11:43:51;1.10;;;0.80;;
6661;SDS011;3367;48.714;8.994;2023-09-18T11:46:18;4.67;;;0.90;;
6661;SDS011;3367;48.714;8.994;2023-09-18T11:48:47;1.47;;;0.90;;
6661;SDS011;3367;48.714;8.994;2023-09-18T11:51:20;1.00;;;0.73;;
6661;SDS011;3367;48.714;8.994;2023-09-18T11:53:49;1.03;;;0.80;;
6661;SDS011;3367;48.714;8.994;2023-09-18T11:56:20;1.30;;;0.90;;
6661;SDS011;3367;48.714;8.994;2023-09-18T11:58:47;2.03;;;1.00;;
6661;SDS011;3367;48.714;8.994;2023-09-18T12:01:15;1.00;;;0.60;;
6661;SDS011;3367;48.714;8.994;2023-09-18T12:03:42;0.80;;;0.60;;
6661;SDS011;3367;48.714;8.994;2023-09-18T12:06:09;0.90;;;0.60;;
6661;SDS011;3367;48.714;8.994;2023-09-18T12:08:38;1.07;;;0.70;;
6661;SDS011;3367;48.714;8.994;2023-09-18T12:11:06;0.93;;;0.60;;
6661;SDS011;3367;48.714;8.994;2023-09-18T12:13:34;0.80;;;0.60;;
6661;SDS011;3367;48.714;8.994;2023-09-18T12:16:01;0.77;;;0.60;;
6661;SDS011;3367;48.714;8.994;2023-09-18T12:18:30;2.80;;;0.97;;
6661;SDS011;3367;48.714;8.994;2023-09-18T12:20:59;2.40;;;0.80;;
6661;SDS011;3367;48.714;8.994;2023-09-18T12:23:29;1.57;;;1.47;;
6661;SDS011;3367;48.714;8.994;2023-09-18T12:26:03;0.80;;;0.67;;
6661;SDS011;3367;48.714;8.994;2023-09-18T12:28:33;5.27;;;0.80;;
6661;SDS011;3367;48.714;8.994;2023-09-18T12:31:02;2.50;;;2.30;;
6661;SDS011;3367;48.714;8.994;2023-09-18T12:33:33;0.70;;;0.60;;
6661;SDS011;3367;48.714;8.994;2023-09-18T12:36:00;1.40;;;0.63;;
6661;SDS011;3367;48.714;8.994;2023-09-18T12:38:29;1.90;;;0.70;;
6661;SDS011;3367;48.714;8.994;2023-09-18T12:40:56;2.60;;;0.80;;
6661;SDS011;3367;48.714;8.994;2023-09-18T12:43:31;1.10;;;0.90;;
6661;SDS011;3367;48.714;8.994;2023-09-18T12:46:01;0.87;;;0.87;;
6661;SDS011;3367;48.714;8.994;2023-09-18T12:48:30;1.67;;;1.10;;
6661;SDS011;3367;48.714;8.994;2023-09-18T12:51:02;0.90;;;0.60;;
6661;SDS011;3367;48.714;8.994;2023-09-18T12:53:29;2.23;;;0.77;;
6661;SDS011;3367;48.714;8.994;2023-09-18T12:56:04;1.63;;;0.80;;
6661;SDS011;3367;48.714;8.994;2023-09-18T12:58:31;3.30;;;0.80;;
6661;SDS011;3367;48.714;8.994;2023-09-18T13:01:03;0.70;;;0.53;;
6661;SDS011;3367;48.714;8.994;2023-09-18T13:03:32;0.80;;;0.50;;
6661;SDS011;3367;48.714;8.994;2023-09-18T13:06:06;4.20;;;1.10;;
6661;SDS011;3367;48.714;8.994;2023-09-18T13:08:34;2.50;;;0.90;;
6661;SDS011;3367;48.714;8.994;2023-09-18T13:11:01;1.13;;;0.80;;
6661;SDS011;3367;48.714;8.994;2023-09-18T13:13:29;0.70;;;0.50;;
6661;SDS011;3367;48.714;8.994;2023-09-18T13:15:57;1.43;;;0.80;;
6661;SDS011;3367;48.714;8.994;2023-09-18T13:18:26;4.23;;;0.73;;
6661;SDS011;3367;48.714;8.994;2023-09-18T13:20:53;0.70;;;0.60;;
6661;SDS011;3367;48.714;8.994;2023-09-18T13:23:20;0.73;;;0.70;;
6661;SDS011;3367;48.714;8.994;2023-09-18T13:25:58;6.40;;;0.70;;
6661;SDS011;3367;48.714;8.994;2023-09-18T13:28:25;0.90;;;0.60;;
6661;SDS011;3367;48.714;8.994;2023-09-18T13:30:52;0.90;;;0.63;;
6661;SDS011;3367;48.714;8.994;2023-09-18T13:33:19;1.17;;;0.87;;
6661;SDS011;3367;48.714;8.994;2023-09-18T13:35:48;0.70;;;0.57;;
6661;SDS011;3367;48.714;8.994;2023-09-18T13:38:15;1.27;;;0.77;;
6661;SDS011;3367;48.714;8.994;2023-09-18T13:40:43;0.80;;;0.77;;
6661;SDS011;3367;48.714;8.994;2023-09-18T13:43:12;0.83;;;0.63;;
6661;SDS011;3367;48.714;8.994;2023-09-18T13:45:41;1.00;;;0.70;;
6661;SDS011;3367;48.714;8.994;2023-09-18T13:48:08;0.93;;;0.63;;
6661;SDS011;3367;48.714;8.994;2023-09-18T13:50:35;0.93;;;0.80;;
6661;SDS011;3367;48.714;8.994;2023-09-18T13:53:04;0.70;;;0.60;;
6661;SDS011;3367;48.714;8.994;2023-09-18T13:55:31;1.50;;;0.63;;
6661;SDS011;3367;48.714;8.994;2023-09-18T13:57:58;0.70;;;0.60;;
6661;SDS011;3367;48.714;8.994;2023-09-18T14:00:28;1.07;;;0.87;;
6661;SDS011;3367;48.714;8.994;2023-09-18T14:02:54;1.00;;;0.50;;
6661;SDS011;3367;48.714;8.994;2023-09-18T14:05:21;0.70;;;0.50;;
6661;SDS011;3367;48.714;8.994;2023-09-18T14:07:48;1.23;;;0.80;;
6661;SDS011;3367;48.714;8.994;2023-09-18T14:10:17;1.27;;;0.63;;
6661;SDS011;3367;48.714;8.994;2023-09-18T14:12:46;0.80;;;0.47;;
6661;SDS011;3367;48.714;8.994;2023-09-18T14:15:13;0.70;;;0.50;;
6661;SDS011;3367;48.714;8.994;2023-09-18T14:17:39;1.07;;;0.50;;
6661;SDS011;3367;48.714;8.994;2023-09-18T14:20:06;0.70;;;0.60;;
6661;SDS011;3367;48.714;8.994;2023-09-18T14:22:34;0.80;;;0.80;;
6661;SDS011;3367;48.714;8.994;2023-09-18T14:25:02;2.20;;;0.70;;
6661;SDS011;3367;48.714;8.994;2023-09-18T14:27:32;1.00;;;0.70;;
6661;SDS011;3367;48.714;8.994;2023-09-18T14:29:59;2.20;;;0.77;;
6661;SDS011;3367;48.714;8.994;2023-09-18T14:32:31;0.80;;;0.60;;
6661;SDS011;3367;48.714;8.994;2023-09-18T14:34:57;0.70;;;0.53;;
6661;SDS011;3367;48.714;8.994;2023-09-18T14:37:26;0.70;;;0.57;;
6661;SDS011;3367;48.714;8.994;2023-09-18T14:39:54;0.93;;;0.60;;
6661;SDS011;3367;48.714;8.994;2023-09-18T14:42:21;1.33;;;0.83;;
6661;SDS011;3367;48.714;8.994;2023-09-18T14:44:50;0.80;;;0.50;;
6661;SDS011;3367;48.714;8.994;2023-09-18T14:47:16;1.83;;;0.60;;
6661;SDS011;3367;48.714;8.994;2023-09-18T14:49:43;2.30;;;0.80;;
6661;SDS011;3367;48.714;8.994;2023-09-18T14:52:11;1.37;;;0.80;;
6661;SDS011;3367;48.714;8.994;2023-09-18T14:54:38;0.70;;;0.60;;
6661;SDS011;3367;48.714;8.994;2023-09-18T14:57:05;2.50;;;1.40;;
6661;SDS011;3367;48.714;8.994;2023-09-18T14:59:33;1.00;;;0.77;;
6661;SDS011;3367;48.714;8.994;2023-09-18T15:02:01;1.27;;;0.77;;
6661;SDS011;3367;48.714;8.994;2023-09-18T15:04:28;1.27;;;0.70;;
6661;SDS011;3367;48.714;8.994;2023-09-18T15:06:55;1.90;;;0.87;;
6661;SDS011;3367;48.714;8.994;2023-09-18T15:09:22;1.23;;;0.60;;
6661;SDS011;3367;48.714;8.994;2023-09-18T15:11:49;0.80;;;0.50;;
6661;SDS011;3367;48.714;8.994;2023-09-18T15:14:16;0.90;;;0.90;;
6661;SDS011;3367;48.714;8.994;2023-09-18T15:16:42;0.90;;;0.50;;
6661;SDS011;3367;48.714;8.994;2023-09-18T15:19:10;2.23;;;0.80;;
6661;SDS011;3367;48.714;8.994;2023-09-18T15:21:39;1.07;;;0.60;;
6661;SDS011;3367;48.714;8.994;2023-09-18T15:24:06;0.70;;;0.70;;
6661;SDS011;3367;48.714;8.994;2023-09-18T15:26:33;3.27;;;0.77;;
6661;SDS011;3367;48.714;8.994;2023-09-18T15:29:00;0.80;;;0.70;;